sensor_id;sensor_type;location;lat;lon;timestamp;P1;durP1;ratioP1;P2;durP2;ratioP2
65535;SDS011;52145;49.342;9.116;2023-06-10T00:01:27;7.03;;;6.00;;
65535;SDS011;52145;49.342;9.116;2023-06-10T00:03:53;9.35;;;6.50;;
65535;SDS011;52145;49.342;9.116;2023-06-10T00:06:19;8.35;;;5.78;;
65535;SDS011;52145;49.342;9.116;2023-06-10T00:08:49;11.18;;;5.97;;
65535;SDS011;52145;49.342;9.116;2023-06-10T00:11:15;8.20;;;6.28;;
65535;SDS011;52145;49.342;9.116;2023-06-10T00:13:40;9.55;;;6.15;;
65535;SDS011;52145;49.342;9.116;2023-06-10T00:16:06;10.98;;;6.38;;
65535;SDS011;52145;49.342;9.116;2023-06-10T00:18:32;12.02;;;6.75;;
65535;SDS011;52145;49.342;9.116;2023-06-10T00:21:01;8.30;;;6.38;;
65535;SDS011;52145;49.342;9.116;2023-06-10T00:23:29;7.40;;;5.65;;
65535;SDS011;52145;49.342;9.116;2023-06-10T00:26:02;8.32;;;6.30;;
65535;SDS011;52145;49.342;9.116;2023-06-10T00:28:28;8.57;;;6.40;;
65535;SDS011;52145;49.342;9.116;2023-06-10T00:30:54;8.70;;;6.35;;
65535;SDS011;52145;49.342;9.116;2023-06-10T00:33:20;8.73;;;6.30;;
65535;SDS011;52145;49.342;9.116;2023-06-10T00:35:46;9.27;;;6.80;;
65535;SDS011;52145;49.342;9.116;2023-06-10T00:38:13;8.15;;;6.00;;
65535;SDS011;52145;49.342;9.116;2023-06-10T00:40:39;9.10;;;5.93;;
65535;SDS011;52145;49.342;9.116;2023-06-10T00:43:06;7.53;;;6.32;;
65535;SDS011;52145;49.342;9.116;2023-06-10T00:45:32;8.20;;;5.93;;
65535;SDS011;52145;49.342;9.116;2023-06-10T00:47:58;6.55;;;5.47;;
65535;SDS011;52145;49.342;9.116;2023-06-10T00:50:25;8.40;;;5.85;;
65535;SDS011;52145;49.342;9.116;2023-06-10T00:52:51;8.60;;;5.50;;
65535;SDS011;52145;49.342;9.116;2023-06-10T00:55:17;9.98;;;5.72;;
65535;SDS011;52145;49.342;9.116;2023-06-10T00:57:44;8.57;;;6.13;;
65535;SDS011;52145;49.342;9.116;2023-06-10T01:00:11;8.88;;;5.95;;
65535;SDS011;52145;49.342;9.116;2023-06-10T01:02:38;7.50;;;6.00;;
65535;SDS011;52145;49.342;9.116;2023-06-10T01:05:04;8.55;;;5.90;;
65535;SDS011;52145;49.342;9.116;2023-06-10T01:14:55;9.13;;;6.38;;
65535;SDS011;52145;49.342;9.116;2023-06-10T01:17:21;8.25;;;6.13;;
65535;SDS011;52145;49.342;9.116;2023-06-10T01:19:54;8.88;;;6.43;;
65535;SDS011;52145;49.342;9.116;2023-06-10T01:22:21;8.27;;;6.68;;
65535;SDS011;52145;49.342;9.116;2023-06-10T01:24:47;7.65;;;5.95;;
65535;SDS011;52145;49.342;9.116;2023-06-10T01:27:15;8.25;;;6.53;;
65535;SDS011;52145;49.342;9.116;2023-06-10T01:29:46;9.18;;;6.32;;
65535;SDS011;52145;49.342;9.116;2023-06-10T01:34:46;7.10;;;5.90;;
65535;SDS011;52145;49.342;9.116;2023-06-10T01:37:13;7.38;;;6.28;;
65535;SDS011;52145;49.342;9.116;2023-06-10T01:39:41;11.77;;;6.43;;
65535;SDS011;52145;49.342;9.116;2023-06-10T01:42:08;8.23;;;6.13;;
65535;SDS011;52145;49.342;9.116;2023-06-10T01:44:35;8.05;;;6.40;;
65535;SDS011;52145;49.342;9.116;2023-06-10T01:47:01;10.32;;;6.43;;
65535;SDS011;52145;49.342;9.116;2023-06-10T01:49:27;9.45;;;5.80;;
65535;SDS011;52145;49.342;9.116;2023-06-10T01:51:53;11.00;;;6.25;;
65535;SDS011;52145;49.342;9.116;2023-06-10T01:54:19;8.63;;;6.00;;
65535;SDS011;52145;49.342;9.116;2023-06-10T01:56:45;6.88;;;5.22;;
65535;SDS011;52145;49.342;9.116;2023-06-10T01:59:11;9.23;;;6.00;;
65535;SDS011;52145;49.342;9.116;2023-06-10T02:01:37;9.88;;;6.53;;
65535;SDS011;52145;49.342;9.116;2023-06-10T02:04:03;8.27;;;6.32;;
65535;SDS011;52145;49.342;9.116;2023-06-10T02:06:29;9.18;;;6.10;;
65535;SDS011;52145;49.342;9.116;2023-06-10T02:08:55;8.85;;;6.47;;
65535;SDS011;52145;49.342;9.116;2023-06-10T02:11:21;7.40;;;6.00;;
65535;SDS011;52145;49.342;9.116;2023-06-10T02:13:47;8.25;;;6.43;;
65535;SDS011;52145;49.342;9.116;2023-06-10T02:16:13;7.40;;;5.78;;
65535;SDS011;52145;49.342;9.116;2023-06-10T02:18:41;7.45;;;6.00;;
65535;SDS011;52145;49.342;9.116;2023-06-10T02:21:11;10.98;;;5.70;;
65535;SDS011;52145;49.342;9.116;2023-06-10T02:23:37;10.05;;;6.20;;
65535;SDS011;52145;49.342;9.116;2023-06-10T02:26:03;8.32;;;6.00;;
65535;SDS011;52145;49.342;9.116;2023-06-10T02:28:29;8.05;;;6.00;;
65535;SDS011;52145;49.342;9.116;2023-06-10T02:30:55;7.68;;;6.45;;
65535;SDS011;52145;49.342;9.116;2023-06-10T02:33:22;10.15;;;6.75;;
65535;SDS011;52145;49.342;9.116;2023-06-10T02:35:48;9.45;;;6.35;;
65535;SDS011;52145;49.342;9.116;2023-06-10T02:38:14;8.65;;;6.65;;
65535;SDS011;52145;49.342;9.116;2023-06-10T02:40:40;7.75;;;6.20;;
65535;SDS011;52145;49.342;9.116;2023-06-10T02:43:06;7.47;;;6.13;;
65535;SDS011;52145;49.342;9.116;2023-06-10T02:45:32;9.75;;;7.10;;
65535;SDS011;52145;49.342;9.116;2023-06-10T02:47:58;7.63;;;6.45;;
65535;SDS011;52145;49.342;9.116;2023-06-10T02:50:23;12.40;;;7.18;;
65535;SDS011;52145;49.342;9.116;2023-06-10T02:52:50;9.70;;;5.97;;
65535;SDS011;52145;49.342;9.116;2023-06-10T02:55:15;8.75;;;6.50;;
65535;SDS011;52145;49.342;9.116;2023-06-10T02:57:41;8.45;;;6.28;;
65535;SDS011;52145;49.342;9.116;2023-06-10T03:00:08;10.02;;;6.30;;
65535;SDS011;52145;49.342;9.116;2023-06-10T03:02:35;8.52;;;6.63;;
65535;SDS011;52145;49.342;9.116;2023-06-10T03:05:03;11.18;;;6.90;;
65535;SDS011;52145;49.342;9.116;2023-06-10T03:07:30;9.88;;;6.68;;
65535;SDS011;52145;49.342;9.116;2023-06-10T03:09:56;9.50;;;6.63;;
65535;SDS011;52145;49.342;9.116;2023-06-10T03:12:22;8.00;;;6.35;;
65535;SDS011;52145;49.342;9.116;2023-06-10T03:14:47;7.15;;;5.68;;
65535;SDS011;52145;49.342;9.116;2023-06-10T03:17:13;8.43;;;6.13;;
65535;SDS011;52145;49.342;9.116;2023-06-10T03:19:39;8.57;;;6.28;;
65535;SDS011;52145;49.342;9.116;2023-06-10T03:22:09;8.45;;;6.43;;
65535;SDS011;52145;49.342;9.116;2023-06-10T03:24:35;8.80;;;6.40;;
65535;SDS011;52145;49.342;9.116;2023-06-10T03:27:04;8.93;;;6.82;;
65535;SDS011;52145;49.342;9.116;2023-06-10T03:29:30;10.27;;;6.68;;
65535;SDS011;52145;49.342;9.116;2023-06-10T03:31:57;7.82;;;6.45;;
65535;SDS011;52145;49.342;9.116;2023-06-10T03:34:23;8.38;;;6.85;;
65535;SDS011;52145;49.342;9.116;2023-06-10T03:36:49;8.48;;;6.90;;
65535;SDS011;52145;49.342;9.116;2023-06-10T03:39:15;9.38;;;6.20;;
65535;SDS011;52145;49.342;9.116;2023-06-10T03:41:41;9.35;;;7.20;;
65535;SDS011;52145;49.342;9.116;2023-06-10T03:44:07;9.38;;;6.78;;
65535;SDS011;52145;49.342;9.116;2023-06-10T03:46:33;8.68;;;6.25;;
65535;SDS011;52145;49.342;9.116;2023-06-10T03:48:59;8.73;;;6.75;;
65535;SDS011;52145;49.342;9.116;2023-06-10T03:51:29;7.82;;;6.55;;
65535;SDS011;52145;49.342;9.116;2023-06-10T03:53:55;10.02;;;6.82;;
65535;SDS011;52145;49.342;9.116;2023-06-10T03:56:21;13.18;;;7.47;;
65535;SDS011;52145;49.342;9.116;2023-06-10T03:58:47;9.98;;;6.55;;
65535;SDS011;52145;49.342;9.116;2023-06-10T04:01:12;9.80;;;7.05;;
65535;SDS011;52145;49.342;9.116;2023-06-10T04:03:39;10.23;;;6.60;;
65535;SDS011;52145;49.342;9.116;2023-06-10T04:06:06;10.40;;;7.00;;
65535;SDS011;52145;49.342;9.116;2023-06-10T04:08:32;8.30;;;6.90;;
65535;SDS011;52145;49.342;9.116;2023-06-10T04:10:58;9.43;;;6.18;;
65535;SDS011;52145;49.342;9.116;2023-06-10T04:13:24;8.45;;;6.50;;
65535;SDS011;52145;49.342;9.116;2023-06-10T04:15:51;8.68;;;6.63;;
65535;SDS011;52145;49.342;9.116;2023-06-10T04:18:17;9.43;;;6.47;;
65535;SDS011;52145;49.342;9.116;2023-06-10T04:20:43;9.40;;;6.65;;
65535;SDS011;52145;49.342;9.116;2023-06-10T04:23:09;11.88;;;7.95;;
65535;SDS011;52145;49.342;9.116;2023-06-10T04:25:35;8.88;;;6.85;;
65535;SDS011;52145;49.342;9.116;2023-06-10T04:28:01;10.40;;;7.80;;
65535;SDS011;52145;49.342;9.116;2023-06-10T04:30:28;9.18;;;6.65;;
65535;SDS011;52145;49.342;9.116;2023-06-10T04:32:53;10.10;;;7.20;;
65535;SDS011;52145;49.342;9.116;2023-06-10T04:35:19;9.07;;;6.38;;
65535;SDS011;52145;49.342;9.116;2023-06-10T04:37:46;9.05;;;7.38;;
65535;SDS011;52145;49.342;9.116;2023-06-10T04:40:12;10.02;;;7.25;;
65535;SDS011;52145;49.342;9.116;2023-06-10T04:42:38;7.88;;;6.15;;
65535;SDS011;52145;49.342;9.116;2023-06-10T04:45:04;10.20;;;6.82;;
65535;SDS011;52145;49.342;9.116;2023-06-10T04:47:30;9.27;;;6.82;;
65535;SDS011;52145;49.342;9.116;2023-06-10T04:49:58;8.75;;;7.13;;
65535;SDS011;52145;49.342;9.116;2023-06-10T04:52:24;10.68;;;6.97;;
65535;SDS011;52145;49.342;9.116;2023-06-10T04:54:50;11.18;;;6.53;;
65535;SDS011;52145;49.342;9.116;2023-06-10T04:57:16;8.65;;;6.60;;
65535;SDS011;52145;49.342;9.116;2023-06-10T04:59:42;7.38;;;6.20;;
65535;SDS011;52145;49.342;9.116;2023-06-10T05:02:08;8.02;;;5.78;;
65535;SDS011;52145;49.342;9.116;2023-06-10T05:04:34;8.90;;;6.82;;
65535;SDS011;52145;49.342;9.116;2023-06-10T05:07:00;10.23;;;6.97;;
65535;SDS011;52145;49.342;9.116;2023-06-10T05:09:26;10.20;;;6.82;;
65535;SDS011;52145;49.342;9.116;2023-06-10T05:11:52;8.57;;;6.65;;
65535;SDS011;52145;49.342;9.116;2023-06-10T05:14:18;10.15;;;6.50;;
65535;SDS011;52145;49.342;9.116;2023-06-10T05:16:45;8.88;;;6.55;;
65535;SDS011;52145;49.342;9.116;2023-06-10T05:19:11;7.45;;;6.65;;
65535;SDS011;52145;49.342;9.116;2023-06-10T05:21:37;7.82;;;6.22;;
65535;SDS011;52145;49.342;9.116;2023-06-10T05:24:03;9.20;;;7.38;;
65535;SDS011;52145;49.342;9.116;2023-06-10T05:26:29;8.82;;;6.45;;
65535;SDS011;52145;49.342;9.116;2023-06-10T05:28:57;10.48;;;7.00;;
65535;SDS011;52145;49.342;9.116;2023-06-10T05:31:23;9.13;;;6.03;;
65535;SDS011;52145;49.342;9.116;2023-06-10T05:33:50;7.30;;;6.22;;
65535;SDS011;52145;49.342;9.116;2023-06-10T05:36:15;7.70;;;6.38;;
65535;SDS011;52145;49.342;9.116;2023-06-10T05:38:41;8.40;;;6.10;;
65535;SDS011;52145;49.342;9.116;2023-06-10T05:41:07;7.90;;;5.90;;
65535;SDS011;52145;49.342;9.116;2023-06-10T05:43:33;9.98;;;6.30;;
65535;SDS011;52145;49.342;9.116;2023-06-10T05:45:59;11.15;;;5.95;;
65535;SDS011;52145;49.342;9.116;2023-06-10T05:48:25;10.52;;;6.68;;
65535;SDS011;52145;49.342;9.116;2023-06-10T05:50:51;8.40;;;6.70;;
65535;SDS011;52145;49.342;9.116;2023-06-10T05:53:17;9.82;;;6.43;;
65535;SDS011;52145;49.342;9.116;2023-06-10T05:55:44;8.55;;;6.20;;
65535;SDS011;52145;49.342;9.116;2023-06-10T05:58:10;8.70;;;6.07;;
65535;SDS011;52145;49.342;9.116;2023-06-10T06:00:37;8.20;;;5.78;;
65535;SDS011;52145;49.342;9.116;2023-06-10T06:03:03;7.18;;;5.97;;
65535;SDS011;52145;49.342;9.116;2023-06-10T06:05:29;10.00;;;6.45;;
65535;SDS011;52145;49.342;9.116;2023-06-10T06:08:00;10.45;;;6.70;;
65535;SDS011;52145;49.342;9.116;2023-06-10T06:10:26;9.95;;;6.18;;
65535;SDS011;52145;49.342;9.116;2023-06-10T06:12:52;8.18;;;5.85;;
65535;SDS011;52145;49.342;9.116;2023-06-10T06:15:18;10.57;;;6.43;;
65535;SDS011;52145;49.342;9.116;2023-06-10T06:17:44;9.05;;;5.90;;
65535;SDS011;52145;49.342;9.116;2023-06-10T06:20:10;8.40;;;5.28;;
65535;SDS011;52145;49.342;9.116;2023-06-10T06:22:36;9.13;;;6.05;;
65535;SDS011;52145;49.342;9.116;2023-06-10T06:25:02;7.70;;;5.97;;
65535;SDS011;52145;49.342;9.116;2023-06-10T06:27:28;9.85;;;5.88;;
65535;SDS011;52145;49.342;9.116;2023-06-10T06:29:54;6.03;;;5.03;;
65535;SDS011;52145;49.342;9.116;2023-06-10T06:32:20;8.80;;;5.97;;
65535;SDS011;52145;49.342;9.116;2023-06-10T06:34:47;7.25;;;5.53;;
65535;SDS011;52145;49.342;9.116;2023-06-10T06:37:18;8.40;;;5.43;;
65535;SDS011;52145;49.342;9.116;2023-06-10T06:39:44;8.25;;;5.68;;
65535;SDS011;52145;49.342;9.116;2023-06-10T06:42:10;9.10;;;5.85;;
65535;SDS011;52145;49.342;9.116;2023-06-10T06:44:36;8.88;;;6.22;;
65535;SDS011;52145;49.342;9.116;2023-06-10T06:47:02;11.13;;;5.43;;
65535;SDS011;52145;49.342;9.116;2023-06-10T06:49:28;7.75;;;5.82;;
65535;SDS011;52145;49.342;9.116;2023-06-10T06:51:55;9.55;;;6.15;;
65535;SDS011;52145;49.342;9.116;2023-06-10T06:54:21;7.97;;;6.35;;
65535;SDS011;52145;49.342;9.116;2023-06-10T06:56:46;8.15;;;5.90;;
65535;SDS011;52145;49.342;9.116;2023-06-10T06:59:12;7.80;;;5.63;;
65535;SDS011;52145;49.342;9.116;2023-06-10T07:01:39;6.38;;;5.35;;
65535;SDS011;52145;49.342;9.116;2023-06-10T07:04:05;6.88;;;5.38;;
65535;SDS011;52145;49.342;9.116;2023-06-10T07:06:31;7.28;;;5.88;;
65535;SDS011;52145;49.342;9.116;2023-06-10T07:08:56;6.72;;;5.13;;
65535;SDS011;52145;49.342;9.116;2023-06-10T07:11:23;6.97;;;5.20;;
65535;SDS011;52145;49.342;9.116;2023-06-10T07:13:48;7.70;;;5.32;;
65535;SDS011;52145;49.342;9.116;2023-06-10T07:16:14;7.82;;;5.13;;
65535;SDS011;52145;49.342;9.116;2023-06-10T07:18:40;7.93;;;5.63;;
65535;SDS011;52145;49.342;9.116;2023-06-10T07:21:06;7.80;;;5.43;;
65535;SDS011;52145;49.342;9.116;2023-06-10T07:23:32;8.02;;;5.47;;
65535;SDS011;52145;49.342;9.116;2023-06-10T07:25:58;7.53;;;5.68;;
65535;SDS011;52145;49.342;9.116;2023-06-10T07:28:24;7.50;;;4.80;;
65535;SDS011;52145;49.342;9.116;2023-06-10T07:30:50;6.60;;;5.47;;
65535;SDS011;52145;49.342;9.116;2023-06-10T07:33:16;7.57;;;5.45;;
65535;SDS011;52145;49.342;9.116;2023-06-10T07:35:42;8.07;;;5.90;;
65535;SDS011;52145;49.342;9.116;2023-06-10T07:38:08;7.65;;;5.20;;
65535;SDS011;52145;49.342;9.116;2023-06-10T07:40:34;6.43;;;5.03;;
65535;SDS011;52145;49.342;9.116;2023-06-10T07:43:00;7.00;;;5.00;;
65535;SDS011;52145;49.342;9.116;2023-06-10T07:45:26;8.38;;;5.18;;
65535;SDS011;52145;49.342;9.116;2023-06-10T07:47:52;6.03;;;4.53;;
65535;SDS011;52145;49.342;9.116;2023-06-10T07:50:18;5.47;;;4.50;;
65535;SDS011;52145;49.342;9.116;2023-06-10T07:52:44;7.88;;;5.15;;
65535;SDS011;52145;49.342;9.116;2023-06-10T07:55:10;5.30;;;4.03;;
65535;SDS011;52145;49.342;9.116;2023-06-10T07:57:36;7.22;;;4.22;;
65535;SDS011;52145;49.342;9.116;2023-06-10T08:00:03;7.45;;;4.28;;
65535;SDS011;52145;49.342;9.116;2023-06-10T08:02:29;7.05;;;3.92;;
65535;SDS011;52145;49.342;9.116;2023-06-10T08:04:55;6.18;;;4.03;;
65535;SDS011;52145;49.342;9.116;2023-06-10T08:07:21;6.80;;;4.35;;
65535;SDS011;52145;49.342;9.116;2023-06-10T08:09:47;5.43;;;4.18;;
65535;SDS011;52145;49.342;9.116;2023-06-10T08:12:13;5.90;;;4.70;;
65535;SDS011;52145;49.342;9.116;2023-06-10T08:14:40;7.22;;;4.13;;
65535;SDS011;52145;49.342;9.116;2023-06-10T08:17:06;6.97;;;4.30;;
65535;SDS011;52145;49.342;9.116;2023-06-10T08:19:32;6.53;;;4.53;;
65535;SDS011;52145;49.342;9.116;2023-06-10T08:21:58;5.00;;;4.03;;
65535;SDS011;52145;49.342;9.116;2023-06-10T08:24:24;6.63;;;4.47;;
65535;SDS011;52145;49.342;9.116;2023-06-10T08:26:50;9.35;;;4.43;;
65535;SDS011;52145;49.342;9.116;2023-06-10T08:29:15;6.25;;;4.28;;
65535;SDS011;52145;49.342;9.116;2023-06-10T08:31:42;6.10;;;4.10;;
65535;SDS011;52145;49.342;9.116;2023-06-10T08:34:08;6.35;;;3.85;;
65535;SDS011;52145;49.342;9.116;2023-06-10T08:36:34;5.78;;;4.18;;
65535;SDS011;52145;49.342;9.116;2023-06-10T08:39:01;5.55;;;3.72;;
65535;SDS011;52145;49.342;9.116;2023-06-10T08:41:28;6.00;;;4.13;;
65535;SDS011;52145;49.342;9.116;2023-06-10T08:43:58;5.13;;;4.10;;
65535;SDS011;52145;49.342;9.116;2023-06-10T08:46:25;7.03;;;4.03;;
65535;SDS011;52145;49.342;9.116;2023-06-10T08:48:52;8.23;;;4.32;;
65535;SDS011;52145;49.342;9.116;2023-06-10T08:51:18;5.40;;;4.05;;
65535;SDS011;52145;49.342;9.116;2023-06-10T08:53:53;6.68;;;4.22;;
65535;SDS011;52145;49.342;9.116;2023-06-10T08:56:21;8.88;;;4.40;;
65535;SDS011;52145;49.342;9.116;2023-06-10T08:58:47;6.85;;;4.38;;
65535;SDS011;52145;49.342;9.116;2023-06-10T09:01:13;10.32;;;4.65;;
65535;SDS011;52145;49.342;9.116;2023-06-10T09:03:41;7.32;;;4.47;;
65535;SDS011;52145;49.342;9.116;2023-06-10T09:06:07;6.63;;;4.63;;
65535;SDS011;52145;49.342;9.116;2023-06-10T09:08:34;6.95;;;4.07;;
65535;SDS011;52145;49.342;9.116;2023-06-10T09:11:00;6.65;;;4.30;;
65535;SDS011;52145;49.342;9.116;2023-06-10T09:13:26;6.50;;;4.22;;
65535;SDS011;52145;49.342;9.116;2023-06-10T09:15:52;5.53;;;4.10;;
65535;SDS011;52145;49.342;9.116;2023-06-10T09:18:21;7.82;;;4.40;;
65535;SDS011;52145;49.342;9.116;2023-06-10T09:20:47;6.05;;;4.70;;
65535;SDS011;52145;49.342;9.116;2023-06-10T09:23:13;6.05;;;4.65;;
65535;SDS011;52145;49.342;9.116;2023-06-10T09:25:39;7.53;;;4.50;;
65535;SDS011;52145;49.342;9.116;2023-06-10T09:28:06;6.22;;;4.45;;
65535;SDS011;52145;49.342;9.116;2023-06-10T09:30:38;7.28;;;4.90;;
65535;SDS011;52145;49.342;9.116;2023-06-10T09:33:09;5.20;;;4.50;;
65535;SDS011;52145;49.342;9.116;2023-06-10T09:35:35;6.70;;;4.35;;
65535;SDS011;52145;49.342;9.116;2023-06-10T09:38:01;7.10;;;4.78;;
65535;SDS011;52145;49.342;9.116;2023-06-10T09:40:27;8.93;;;5.25;;
65535;SDS011;52145;49.342;9.116;2023-06-10T09:42:59;11.75;;;4.38;;
65535;SDS011;52145;49.342;9.116;2023-06-10T09:45:32;7.60;;;4.90;;
65535;SDS011;52145;49.342;9.116;2023-06-10T09:47:58;7.15;;;4.93;;
65535;SDS011;52145;49.342;9.116;2023-06-10T09:50:24;10.75;;;5.20;;
65535;SDS011;52145;49.342;9.116;2023-06-10T09:52:50;6.22;;;4.60;;
65535;SDS011;52145;49.342;9.116;2023-06-10T09:55:17;7.47;;;4.57;;
65535;SDS011;52145;49.342;9.116;2023-06-10T09:57:43;8.05;;;4.55;;
65535;SDS011;52145;49.342;9.116;2023-06-10T10:00:13;7.70;;;4.47;;
65535;SDS011;52145;49.342;9.116;2023-06-10T10:02:49;6.18;;;4.40;;
65535;SDS011;52145;49.342;9.116;2023-06-10T10:05:16;6.53;;;4.55;;
65535;SDS011;52145;49.342;9.116;2023-06-10T10:07:43;6.70;;;4.60;;
65535;SDS011;52145;49.342;9.116;2023-06-10T10:10:09;9.93;;;4.78;;
65535;SDS011;52145;49.342;9.116;2023-06-10T10:12:36;5.43;;;4.07;;
65535;SDS011;52145;49.342;9.116;2023-06-10T10:15:03;6.60;;;3.85;;
65535;SDS011;52145;49.342;9.116;2023-06-10T10:17:29;5.50;;;3.92;;
65535;SDS011;52145;49.342;9.116;2023-06-10T10:20:00;7.65;;;3.83;;
65535;SDS011;52145;49.342;9.116;2023-06-10T10:22:29;8.88;;;3.95;;
65535;SDS011;52145;49.342;9.116;2023-06-10T10:24:59;5.35;;;3.97;;
65535;SDS011;52145;49.342;9.116;2023-06-10T10:27:28;6.00;;;3.95;;
65535;SDS011;52145;49.342;9.116;2023-06-10T10:29:55;8.02;;;4.45;;
65535;SDS011;52145;49.342;9.116;2023-06-10T10:32:29;6.38;;;4.03;;
65535;SDS011;52145;49.342;9.116;2023-06-10T10:35:07;5.15;;;3.80;;
65535;SDS011;52145;49.342;9.116;2023-06-10T10:37:35;5.22;;;4.00;;
65535;SDS011;52145;49.342;9.116;2023-06-10T10:40:01;5.55;;;3.95;;
65535;SDS011;52145;49.342;9.116;2023-06-10T10:42:28;4.82;;;3.83;;
65535;SDS011;52145;49.342;9.116;2023-06-10T10:44:54;5.55;;;3.78;;
65535;SDS011;52145;49.342;9.116;2023-06-10T10:47:21;6.35;;;3.35;;
65535;SDS011;52145;49.342;9.116;2023-06-10T10:49:48;5.00;;;3.88;;
65535;SDS011;52145;49.342;9.116;2023-06-10T10:52:15;7.72;;;3.63;;
65535;SDS011;52145;49.342;9.116;2023-06-10T10:54:44;7.85;;;3.42;;
65535;SDS011;52145;49.342;9.116;2023-06-10T10:57:15;6.55;;;4.00;;
65535;SDS011;52145;49.342;9.116;2023-06-10T11:02:17;3.97;;;3.08;;
65535;SDS011;52145;49.342;9.116;2023-06-10T11:04:47;5.10;;;3.47;;
65535;SDS011;52145;49.342;9.116;2023-06-10T11:07:13;7.40;;;3.53;;
65535;SDS011;52145;49.342;9.116;2023-06-10T11:12:40;5.03;;;3.20;;
65535;SDS011;52145;49.342;9.116;2023-06-10T11:15:06;4.88;;;3.15;;
65535;SDS011;52145;49.342;9.116;2023-06-10T11:17:32;3.97;;;3.42;;
65535;SDS011;52145;49.342;9.116;2023-06-10T11:20:01;4.28;;;3.25;;
65535;SDS011;52145;49.342;9.116;2023-06-10T11:22:27;4.53;;;3.40;;
65535;SDS011;52145;49.342;9.116;2023-06-10T11:24:53;5.75;;;3.50;;
65535;SDS011;52145;49.342;9.116;2023-06-10T11:27:23;5.57;;;3.88;;
65535;SDS011;52145;49.342;9.116;2023-06-10T11:32:31;5.47;;;3.83;;
65535;SDS011;52145;49.342;9.116;2023-06-10T11:34:57;4.78;;;3.47;;
65535;SDS011;52145;49.342;9.116;2023-06-10T11:37:23;5.05;;;3.45;;
65535;SDS011;52145;49.342;9.116;2023-06-10T11:39:55;6.15;;;4.00;;
65535;SDS011;52145;49.342;9.116;2023-06-10T11:42:22;7.32;;;3.97;;
65535;SDS011;52145;49.342;9.116;2023-06-10T11:44:48;4.82;;;3.45;;
65535;SDS011;52145;49.342;9.116;2023-06-10T11:47:15;5.57;;;3.80;;
65535;SDS011;52145;49.342;9.116;2023-06-10T11:49:41;4.35;;;3.35;;
65535;SDS011;52145;49.342;9.116;2023-06-10T11:52:07;6.10;;;3.20;;
65535;SDS011;52145;49.342;9.116;2023-06-10T11:54:32;8.07;;;3.42;;
65535;SDS011;52145;49.342;9.116;2023-06-10T11:56:59;5.00;;;3.53;;
65535;SDS011;52145;49.342;9.116;2023-06-10T11:59:28;5.18;;;3.65;;
65535;SDS011;52145;49.342;9.116;2023-06-10T12:01:54;6.82;;;3.60;;
65535;SDS011;52145;49.342;9.116;2023-06-10T12:04:20;4.15;;;3.30;;
65535;SDS011;52145;49.342;9.116;2023-06-10T12:06:47;4.57;;;3.05;;
65535;SDS011;52145;49.342;9.116;2023-06-10T12:09:26;5.35;;;3.38;;
65535;SDS011;52145;49.342;9.116;2023-06-10T12:15:19;3.80;;;3.25;;
65535;SDS011;52145;49.342;9.116;2023-06-10T12:18:24;3.78;;;3.08;;
65535;SDS011;52145;49.342;9.116;2023-06-10T12:20:50;6.47;;;3.00;;
65535;SDS011;52145;49.342;9.116;2023-06-10T12:23:17;5.93;;;2.80;;
65535;SDS011;52145;49.342;9.116;2023-06-10T12:25:51;5.53;;;3.47;;
65535;SDS011;52145;49.342;9.116;2023-06-10T12:28:20;5.85;;;2.80;;
65535;SDS011;52145;49.342;9.116;2023-06-10T12:30:46;4.10;;;2.60;;
65535;SDS011;52145;49.342;9.116;2023-06-10T12:33:21;3.30;;;2.47;;
65535;SDS011;52145;49.342;9.116;2023-06-10T12:35:51;5.05;;;2.83;;
65535;SDS011;52145;49.342;9.116;2023-06-10T12:38:21;3.45;;;2.70;;
65535;SDS011;52145;49.342;9.116;2023-06-10T12:40:47;3.15;;;2.70;;
65535;SDS011;52145;49.342;9.116;2023-06-10T12:43:13;5.40;;;2.92;;
65535;SDS011;52145;49.342;9.116;2023-06-10T12:45:44;2.92;;;2.55;;
65535;SDS011;52145;49.342;9.116;2023-06-10T12:48:11;4.00;;;2.95;;
65535;SDS011;52145;49.342;9.116;2023-06-10T12:50:50;4.32;;;2.97;;
65535;SDS011;52145;49.342;9.116;2023-06-10T12:53:16;3.67;;;3.30;;
65535;SDS011;52145;49.342;9.116;2023-06-10T12:56:20;3.45;;;2.70;;
65535;SDS011;52145;49.342;9.116;2023-06-10T12:58:47;3.60;;;2.90;;
65535;SDS011;52145;49.342;9.116;2023-06-10T13:01:13;4.35;;;3.50;;
65535;SDS011;52145;49.342;9.116;2023-06-10T13:03:39;4.45;;;3.75;;
65535;SDS011;52145;49.342;9.116;2023-06-10T13:06:05;4.22;;;3.42;;
65535;SDS011;52145;49.342;9.116;2023-06-10T13:08:32;4.72;;;3.33;;
65535;SDS011;52145;49.342;9.116;2023-06-10T13:10:58;6.32;;;3.58;;
65535;SDS011;52145;49.342;9.116;2023-06-10T13:13:24;5.35;;;3.20;;
65535;SDS011;52145;49.342;9.116;2023-06-10T13:15:50;4.88;;;3.35;;
65535;SDS011;52145;49.342;9.116;2023-06-10T13:18:16;4.80;;;3.40;;
65535;SDS011;52145;49.342;9.116;2023-06-10T13:20:45;3.78;;;3.20;;
65535;SDS011;52145;49.342;9.116;2023-06-10T13:23:11;4.78;;;3.00;;
65535;SDS011;52145;49.342;9.116;2023-06-10T13:25:37;4.95;;;3.50;;
65535;SDS011;52145;49.342;9.116;2023-06-10T13:28:05;5.22;;;3.65;;
65535;SDS011;52145;49.342;9.116;2023-06-10T13:30:32;3.92;;;3.53;;
65535;SDS011;52145;49.342;9.116;2023-06-10T13:32:58;4.75;;;2.78;;
65535;SDS011;52145;49.342;9.116;2023-06-10T13:35:24;5.55;;;3.70;;
65535;SDS011;52145;49.342;9.116;2023-06-10T13:37:50;5.15;;;3.50;;
65535;SDS011;52145;49.342;9.116;2023-06-10T13:40:16;3.90;;;3.45;;
65535;SDS011;52145;49.342;9.116;2023-06-10T13:42:44;6.95;;;3.35;;
65535;SDS011;52145;49.342;9.116;2023-06-10T13:45:15;4.32;;;3.70;;
65535;SDS011;52145;49.342;9.116;2023-06-10T13:47:42;4.68;;;3.30;;
65535;SDS011;52145;49.342;9.116;2023-06-10T13:50:08;4.78;;;3.65;;
65535;SDS011;52145;49.342;9.116;2023-06-10T13:52:34;3.47;;;2.88;;
65535;SDS011;52145;49.342;9.116;2023-06-10T13:55:00;4.10;;;2.97;;
65535;SDS011;52145;49.342;9.116;2023-06-10T13:57:25;4.53;;;3.17;;
65535;SDS011;52145;49.342;9.116;2023-06-10T13:59:51;4.60;;;3.63;;
65535;SDS011;52145;49.342;9.116;2023-06-10T14:02:17;3.97;;;3.58;;
65535;SDS011;52145;49.342;9.116;2023-06-10T14:04:44;4.43;;;3.40;;
65535;SDS011;52145;49.342;9.116;2023-06-10T14:07:10;4.63;;;3.30;;
65535;SDS011;52145;49.342;9.116;2023-06-10T14:09:36;4.47;;;3.10;;
65535;SDS011;52145;49.342;9.116;2023-06-10T14:12:02;3.75;;;3.05;;
65535;SDS011;52145;49.342;9.116;2023-06-10T14:14:28;4.97;;;3.50;;
65535;SDS011;52145;49.342;9.116;2023-06-10T14:16:55;5.07;;;3.47;;
65535;SDS011;52145;49.342;9.116;2023-06-10T14:19:21;4.30;;;3.45;;
65535;SDS011;52145;49.342;9.116;2023-06-10T14:21:47;6.93;;;3.42;;
65535;SDS011;52145;49.342;9.116;2023-06-10T14:24:14;5.30;;;3.20;;
65535;SDS011;52145;49.342;9.116;2023-06-10T14:26:40;5.55;;;3.38;;
65535;SDS011;52145;49.342;9.116;2023-06-10T14:29:06;4.15;;;3.03;;
65535;SDS011;52145;49.342;9.116;2023-06-10T14:31:33;5.40;;;3.20;;
65535;SDS011;52145;49.342;9.116;2023-06-10T14:33:59;3.67;;;2.95;;
65535;SDS011;52145;49.342;9.116;2023-06-10T14:36:25;4.57;;;3.53;;
65535;SDS011;52145;49.342;9.116;2023-06-10T14:38:51;4.55;;;2.90;;
65535;SDS011;52145;49.342;9.116;2023-06-10T14:41:18;4.20;;;3.08;;
65535;SDS011;52145;49.342;9.116;2023-06-10T14:43:44;3.40;;;3.10;;
65535;SDS011;52145;49.342;9.116;2023-06-10T14:46:10;5.88;;;3.50;;
65535;SDS011;52145;49.342;9.116;2023-06-10T14:48:36;4.05;;;3.33;;
65535;SDS011;52145;49.342;9.116;2023-06-10T14:51:02;3.63;;;3.17;;
65535;SDS011;52145;49.342;9.116;2023-06-10T14:53:28;3.92;;;3.50;;
65535;SDS011;52145;49.342;9.116;2023-06-10T14:55:54;4.47;;;3.45;;
65535;SDS011;52145;49.342;9.116;2023-06-10T14:58:20;3.95;;;3.25;;
65535;SDS011;52145;49.342;9.116;2023-06-10T15:00:46;4.05;;;2.92;;
65535;SDS011;52145;49.342;9.116;2023-06-10T15:03:12;5.00;;;3.00;;
65535;SDS011;52145;49.342;9.116;2023-06-10T15:05:38;5.40;;;3.22;;